createdAt,value
2018-02-10T00:01:58.012Z,1.02
2018-02-10T00:06:59.561Z,1.00
2018-02-10T00:12:00.898Z,0.96
2018-02-10T00:17:02.267Z,0.88
2018-02-10T00:22:04.420Z,0.80
2018-02-10T00:27:05.772Z,0.52
2018-02-10T00:32:07.878Z,0.51
2018-02-10T00:37:09.973Z,0.54
2018-02-10T00:42:12.047Z,0.61
2018-02-10T00:47:13.412Z,0.66
2018-02-10T00:52:14.786Z,0.55
2018-02-10T00:57:16.150Z,0.38
2018-02-10T01:02:18.220Z,0.28
2018-02-10T01:07:19.559Z,0.20
2018-02-10T01:12:21.619Z,0.21
2018-02-10T01:17:22.954Z,0.16
2018-02-10T01:22:24.349Z,0.00
2018-02-10T01:27:25.707Z,-0.06
2018-02-10T01:32:27.057Z,-0.26
2018-02-10T01:37:28.383Z,-0.36
2018-02-10T01:42:29.780Z,-0.38
2018-02-10T01:47:31.120Z,-0.54
2018-02-10T01:52:32.515Z,-0.32
2018-02-10T01:57:33.938Z,-0.20
2018-02-10T02:02:35.281Z,-0.13
2018-02-10T02:07:36.798Z,-0.09
2018-02-10T02:12:38.215Z,-0.04
2018-02-10T02:17:39.598Z,-0.13
2018-02-10T02:22:40.994Z,-0.33
2018-02-10T02:27:42.561Z,-0.29
2018-02-10T02:32:43.939Z,-0.24
2018-02-10T02:37:45.299Z,-0.25
2018-02-10T02:42:46.659Z,-0.28
2018-02-10T02:47:47.988Z,-0.35
2018-02-10T02:52:50.069Z,-0.39
2018-02-10T02:57:51.412Z,-0.51
2018-02-10T03:02:52.777Z,-0.55
2018-02-10T03:07:54.881Z,-0.50
2018-02-10T03:12:56.211Z,-0.46
2018-02-10T03:17:57.586Z,-0.16
2018-02-10T03:22:58.898Z,0.19
2018-02-10T03:28:00.240Z,0.47
2018-02-10T03:33:01.586Z,0.70
2018-02-10T03:38:02.968Z,0.91
2018-02-10T03:43:04.378Z,0.99
2018-02-10T03:48:05.784Z,1.04
2018-02-10T03:53:07.261Z,0.92
2018-02-10T03:58:08.621Z,1.06
2018-02-10T04:03:09.950Z,1.09
2018-02-10T04:08:11.342Z,1.35
2018-02-10T04:13:12.759Z,1.48
2018-02-10T04:18:14.888Z,1.54
2018-02-10T04:23:16.277Z,1.63
2018-02-10T04:28:18.731Z,1.77
2018-02-10T04:33:20.716Z,1.89
2018-02-10T04:38:23.032Z,1.92
2018-02-10T04:43:25.354Z,1.97
2018-02-10T04:48:26.802Z,2.00
2018-02-10T04:53:28.136Z,2.03
2018-02-10T04:58:29.499Z,2.08
2018-02-10T05:03:30.895Z,2.14
2018-02-10T05:08:32.977Z,2.15
2018-02-10T05:13:34.440Z,2.11
2018-02-10T05:18:36.782Z,2.05
2018-02-10T05:23:39.022Z,2.03
2018-02-10T05:28:40.504Z,2.01
2018-02-10T05:33:45.414Z,2.06
2018-02-10T05:38:46.892Z,2.00
2018-02-10T05:43:49.102Z,1.93
2018-02-10T05:48:50.459Z,1.97
2018-02-10T05:53:51.819Z,1.79
2018-02-10T05:58:53.907Z,1.66
2018-02-10T06:03:55.318Z,1.84
2018-02-10T06:08:56.686Z,2.05
2018-02-10T06:13:58.080Z,2.21
2018-02-10T06:18:59.755Z,2.31
2018-02-10T06:24:01.107Z,2.41
2018-02-10T06:29:03.292Z,2.47
2018-02-10T06:34:04.972Z,2.49
2018-02-10T06:39:06.797Z,2.53
2018-02-10T06:44:10.728Z,2.59
2018-02-10T06:49:12.117Z,2.55
2018-02-10T06:54:14.207Z,2.68
2018-02-10T06:59:15.526Z,2.79
2018-02-10T07:04:16.903Z,2.82
2018-02-10T07:09:18.290Z,2.87
2018-02-10T07:14:19.826Z,2.99
2018-02-10T07:19:21.224Z,3.07
2018-02-10T07:24:22.741Z,3.13
2018-02-10T07:29:24.955Z,3.25
2018-02-10T07:34:26.314Z,3.35
2018-02-10T07:39:27.684Z,3.41
2018-02-10T07:44:29.046Z,3.42
2018-02-10T07:49:31.228Z,3.54
2018-02-10T07:54:33.528Z,3.63
2018-02-10T07:59:35.735Z,3.73
2018-02-10T08:04:37.082Z,3.85
2018-02-10T08:09:38.549Z,3.88
2018-02-10T08:14:40.677Z,3.97
2018-02-10T08:19:42.111Z,4.05
2018-02-10T08:24:43.418Z,4.11
2018-02-10T08:29:44.771Z,4.23
2018-02-10T08:34:46.155Z,4.26
2018-02-10T08:39:47.507Z,4.35
2018-02-10T08:44:48.856Z,4.46
2018-02-10T08:49:50.200Z,4.50
2018-02-10T08:54:52.303Z,4.56
2018-02-10T08:59:54.406Z,4.54
2018-02-10T09:04:55.748Z,4.50
2018-02-10T09:09:57.105Z,4.62
2018-02-10T09:14:58.474Z,4.72
2018-02-10T09:20:00.613Z,4.92
2018-02-10T09:25:03.618Z,5.12
2018-02-10T09:30:05.786Z,5.10
2018-02-10T09:35:07.166Z,4.99
2018-02-10T09:40:08.522Z,4.94
2018-02-10T09:45:09.848Z,5.04
2018-02-10T09:50:11.222Z,5.07
2018-02-10T09:55:12.595Z,5.15
2018-02-10T10:00:14.793Z,5.07
2018-02-10T10:05:18.294Z,5.12
2018-02-10T10:10:19.687Z,5.16
2018-02-10T10:15:21.069Z,5.14
2018-02-10T10:20:22.411Z,5.20
2018-02-10T10:25:24.166Z,5.26
2018-02-10T10:30:25.527Z,5.27
2018-02-10T10:35:26.859Z,5.15
2018-02-10T10:40:28.279Z,5.23
2018-02-10T10:45:29.639Z,5.39
2018-02-10T10:50:31.036Z,5.49
2018-02-10T10:55:32.563Z,5.53
2018-02-10T11:00:34.086Z,5.57
2018-02-10T11:05:36.268Z,5.64
2018-02-10T11:10:38.463Z,5.74
2018-02-10T11:15:39.827Z,5.75
2018-02-10T11:20:41.333Z,5.74
2018-02-10T11:25:42.702Z,5.85
2018-02-10T11:30:44.091Z,5.91
2018-02-10T11:35:45.566Z,6.01
2018-02-10T11:40:46.967Z,5.98
2018-02-10T11:45:48.313Z,5.86
2018-02-10T11:50:49.658Z,5.86
2018-02-10T11:55:51.059Z,5.93
2018-02-10T12:00:52.412Z,5.82
2018-02-10T12:05:53.797Z,5.93
2018-02-10T12:10:55.196Z,5.96
2018-02-10T12:15:56.554Z,6.03
2018-02-10T12:20:57.994Z,6.01
2018-02-10T12:25:59.311Z,6.07
2018-02-10T12:31:00.666Z,6.09
2018-02-10T12:36:02.024Z,6.13
2018-02-10T12:41:03.403Z,6.26
2018-02-10T12:46:04.716Z,6.37
2018-02-10T12:51:06.030Z,6.41
2018-02-10T12:56:08.114Z,6.38
2018-02-10T13:01:09.489Z,6.42
2018-02-10T13:06:10.944Z,6.49
2018-02-10T13:11:12.288Z,6.57
2018-02-10T13:16:13.791Z,6.61
2018-02-10T13:21:15.151Z,6.75
2018-02-10T13:26:16.487Z,6.80
2018-02-10T13:31:18.688Z,6.92
2018-02-10T13:36:20.034Z,7.15
2018-02-10T13:41:21.435Z,7.29
2018-02-10T13:46:22.849Z,7.21
2018-02-10T13:51:24.275Z,7.26
2018-02-10T13:56:25.894Z,7.44
2018-02-10T14:01:27.358Z,7.44
2018-02-10T14:06:28.738Z,7.22
2018-02-10T14:11:30.164Z,7.23
2018-02-10T14:16:31.510Z,7.19
2018-02-10T14:21:32.903Z,7.06
2018-02-10T14:26:34.246Z,6.99
2018-02-10T14:31:35.590Z,6.88
2018-02-10T14:36:36.915Z,6.81
2018-02-10T14:41:38.268Z,6.74
2018-02-10T14:46:39.635Z,6.54
2018-02-10T14:51:40.989Z,6.34
2018-02-10T14:56:42.375Z,6.28
2018-02-10T15:01:43.798Z,6.33
2018-02-10T15:06:45.288Z,6.36
2018-02-10T15:11:47.401Z,6.23
2018-02-10T15:16:48.846Z,6.31
2018-02-10T15:21:50.180Z,6.33
2018-02-10T15:26:51.562Z,6.15
2018-02-10T15:32:12.102Z,6.16
2018-02-10T15:37:14.278Z,6.08
2018-02-10T15:42:15.671Z,6.00
2018-02-10T15:47:17.013Z,6.00
2018-02-10T15:52:18.346Z,5.91
2018-02-10T15:57:19.680Z,5.93
2018-02-10T16:02:21.040Z,5.90
2018-02-10T16:07:22.367Z,5.88
2018-02-10T16:12:23.772Z,5.81
2018-02-10T16:17:25.158Z,5.77
2018-02-10T16:22:26.526Z,5.73
2018-02-10T16:27:28.673Z,5.71
2018-02-10T16:32:30.052Z,5.67
2018-02-10T16:37:31.409Z,5.63
2018-02-10T16:42:33.527Z,5.66
2018-02-10T16:47:34.882Z,5.60
2018-02-10T16:52:36.244Z,5.58
2018-02-10T16:57:37.570Z,5.61
2018-02-10T17:02:39.078Z,5.68
2018-02-10T17:07:41.134Z,5.68
2018-02-10T17:12:42.726Z,5.69
2018-02-10T17:17:44.124Z,5.68
2018-02-10T17:22:46.770Z,5.67
2018-02-10T17:27:48.090Z,5.74
2018-02-10T17:32:50.135Z,5.84
2018-02-10T17:37:51.494Z,5.88
2018-02-10T17:42:52.803Z,5.94
2018-02-10T17:47:54.162Z,5.96
2018-02-10T17:52:56.222Z,5.97
2018-02-10T17:58:00.399Z,6.01
2018-02-10T18:03:02.508Z,6.10
2018-02-10T18:08:03.848Z,5.96
2018-02-10T18:13:05.219Z,6.12
2018-02-10T18:18:06.658Z,6.08
2018-02-10T18:23:08.011Z,6.14
2018-02-10T18:28:09.396Z,6.11
2018-02-10T18:33:10.884Z,6.14
2018-02-10T18:38:12.237Z,6.21
2018-02-10T18:43:13.550Z,6.00
2018-02-10T18:48:15.662Z,6.00
2018-02-10T18:53:17.791Z,6.00
2018-02-10T18:58:19.178Z,5.95
2018-02-10T19:03:20.585Z,6.06
2018-02-10T19:08:21.918Z,6.01
2018-02-10T19:13:23.346Z,6.05
2018-02-10T19:18:24.698Z,6.09
2018-02-10T19:23:26.117Z,6.10
2018-02-10T19:28:28.224Z,6.14
2018-02-10T19:33:29.688Z,6.12
2018-02-10T19:38:31.116Z,6.17
2018-02-10T19:43:32.599Z,6.17
2018-02-10T19:48:34.700Z,6.11
2018-02-10T19:53:36.178Z,6.18
2018-02-10T19:58:37.558Z,6.14
2018-02-10T20:03:39.611Z,6.13
2018-02-10T20:08:40.932Z,6.19
2018-02-10T20:13:42.355Z,6.14
2018-02-10T20:18:43.734Z,6.21
2018-02-10T20:23:45.068Z,6.24
2018-02-10T20:28:46.435Z,6.16
2018-02-10T20:33:47.742Z,6.05
2018-02-10T20:38:49.258Z,5.79
2018-02-10T20:43:51.366Z,5.74
2018-02-10T20:48:57.014Z,5.87
2018-02-10T20:53:58.553Z,6.03
2018-02-10T20:59:00.038Z,6.13
2018-02-10T21:04:02.271Z,6.12
2018-02-10T21:09:04.638Z,6.17
2018-02-10T21:14:06.035Z,6.20
2018-02-10T21:19:07.400Z,6.13
2018-02-10T21:24:08.751Z,6.22
2018-02-10T21:29:10.168Z,6.25
2018-02-10T21:34:11.527Z,6.16
2018-02-10T21:39:12.906Z,6.12
2018-02-10T21:44:14.975Z,6.04
2018-02-10T21:49:16.327Z,6.02
2018-02-10T21:54:17.628Z,5.99
2018-02-10T21:59:19.008Z,5.91
2018-02-10T22:04:20.396Z,5.90
2018-02-10T22:09:21.758Z,5.85
2018-02-10T22:14:23.931Z,5.78
2018-02-10T22:19:25.318Z,5.79
2018-02-10T22:24:26.709Z,5.74
2018-02-10T22:29:28.076Z,5.73
2018-02-10T22:34:29.624Z,5.84
2018-02-10T22:39:31.180Z,5.74
2018-02-10T22:44:32.557Z,5.80
2018-02-10T22:49:33.906Z,5.81
2018-02-10T22:54:35.990Z,5.72
2018-02-10T22:59:37.355Z,5.68
2018-02-10T23:04:38.699Z,5.84
2018-02-10T23:09:40.869Z,5.87
2018-02-10T23:14:42.249Z,5.89
2018-02-10T23:19:43.616Z,5.84
2018-02-10T23:24:44.996Z,5.81
2018-02-10T23:29:46.335Z,5.73
2018-02-10T23:34:47.659Z,5.72
2018-02-10T23:39:49.746Z,5.78
2018-02-10T23:44:51.103Z,5.74
2018-02-10T23:49:53.237Z,5.76
2018-02-10T23:54:54.582Z,5.67
2018-02-10T23:59:55.942Z,5.48
